sensor_id;sensor_type;location;lat;lon;timestamp;pressure;altitude;pressure_sealevel;temperature;humidity
10668;BME280;5382;42.136;24.796;2023-03-03T00:00:42;100221.47;;;5.33;100.00
10668;BME280;5382;42.136;24.796;2023-03-03T00:03:10;100271.22;;;5.93;100.00
10668;BME280;5382;42.136;24.796;2023-03-03T00:05:38;100231.34;;;5.65;100.00
10668;BME280;5382;42.136;24.796;2023-03-03T00:08:06;100269.09;;;6.01;100.00
10668;BME280;5382;42.136;24.796;2023-03-03T00:10:33;100269.44;;;5.93;100.00
10668;BME280;5382;42.136;24.796;2023-03-03T00:13:00;100254.75;;;5.89;100.00
10668;BME280;5382;42.136;24.796;2023-03-03T00:15:27;100154.72;;;5.38;100.00
10668;BME280;5382;42.136;24.796;2023-03-03T00:17:55;100153.38;;;5.49;100.00
10668;BME280;5382;42.136;24.796;2023-03-03T00:20:30;100226.66;;;6.10;100.00
10668;BME280;5382;42.136;24.796;2023-03-03T00:23:18;100241.69;;;6.06;100.00
10668;BME280;5382;42.136;24.796;2023-03-03T00:25:45;100235.31;;;6.12;100.00
10668;BME280;5382;42.136;24.796;2023-03-03T00:28:21;100229.44;;;6.07;100.00
10668;BME280;5382;42.136;24.796;2023-03-03T00:30:49;100188.75;;;5.78;100.00
10668;BME280;5382;42.136;24.796;2023-03-03T00:33:24;100226.03;;;6.05;100.00
10668;BME280;5382;42.136;24.796;2023-03-03T00:35:54;100227.88;;;6.03;100.00
10668;BME280;5382;42.136;24.796;2023-03-03T00:38:22;100215.78;;;5.99;100.00
10668;BME280;5382;42.136;24.796;2023-03-03T00:40:49;100162.09;;;5.68;100.00
10668;BME280;5382;42.136;24.796;2023-03-03T00:43:21;100201.66;;;6.01;100.00
10668;BME280;5382;42.136;24.796;2023-03-03T00:45:49;100054.03;;;5.03;100.00
10668;BME280;5382;42.136;24.796;2023-03-03T00:48:28;100208.06;;;5.96;100.00
10668;BME280;5382;42.136;24.796;2023-03-03T00:50:57;100168.09;;;5.70;100.00
10668;BME280;5382;42.136;24.796;2023-03-03T00:53:26;100203.53;;;5.99;100.00
10668;BME280;5382;42.136;24.796;2023-03-03T00:55:53;100197.56;;;5.96;100.00
10668;BME280;5382;42.136;24.796;2023-03-03T00:58:22;100157.97;;;5.62;100.00
10668;BME280;5382;42.136;24.796;2023-03-03T01:00:50;100202.91;;;6.11;100.00
10668;BME280;5382;42.136;24.796;2023-03-03T01:03:20;100135.97;;;5.84;100.00
10668;BME280;5382;42.136;24.796;2023-03-03T01:05:47;100105.34;;;5.83;100.00
10668;BME280;5382;42.136;24.796;2023-03-03T01:08:15;100185.28;;;6.32;100.00
10668;BME280;5382;42.136;24.796;2023-03-03T01:10:47;100044.19;;;5.27;100.00
10668;BME280;5382;42.136;24.796;2023-03-03T01:13:16;100125.09;;;5.92;100.00
10668;BME280;5382;42.136;24.796;2023-03-03T01:15:43;100190.75;;;6.28;100.00
10668;BME280;5382;42.136;24.796;2023-03-03T01:18:11;100191.41;;;6.14;100.00
10668;BME280;5382;42.136;24.796;2023-03-03T01:20:38;100155.31;;;6.00;100.00
10668;BME280;5382;42.136;24.796;2023-03-03T01:23:05;100176.53;;;6.15;100.00
10668;BME280;5382;42.136;24.796;2023-03-03T01:25:33;100186.97;;;6.33;100.00
10668;BME280;5382;42.136;24.796;2023-03-03T01:28:01;100183.78;;;6.27;100.00
10668;BME280;5382;42.136;24.796;2023-03-03T01:30:28;100190.97;;;6.23;100.00
10668;BME280;5382;42.136;24.796;2023-03-03T01:32:55;100189.75;;;6.30;100.00
10668;BME280;5382;42.136;24.796;2023-03-03T01:35:22;100159.56;;;6.03;100.00
10668;BME280;5382;42.136;24.796;2023-03-03T01:37:49;100231.94;;;6.27;100.00
10668;BME280;5382;42.136;24.796;2023-03-03T01:40:19;100151.78;;;6.19;100.00
10668;BME280;5382;42.136;24.796;2023-03-03T01:42:46;100199.50;;;6.46;100.00
10668;BME280;5382;42.136;24.796;2023-03-03T01:45:21;100191.13;;;6.55;100.00
10668;BME280;5382;42.136;24.796;2023-03-03T01:47:55;100182.34;;;6.56;100.00
10668;BME280;5382;42.136;24.796;2023-03-03T01:50:30;100178.53;;;6.62;100.00
10668;BME280;5382;42.136;24.796;2023-03-03T01:52:59;100156.66;;;6.44;100.00
10668;BME280;5382;42.136;24.796;2023-03-03T01:55:31;100163.06;;;6.55;100.00
10668;BME280;5382;42.136;24.796;2023-03-03T01:58:03;100162.44;;;6.50;100.00
10668;BME280;5382;42.136;24.796;2023-03-03T02:00:35;100169.47;;;6.67;100.00
10668;BME280;5382;42.136;24.796;2023-03-03T02:03:03;100103.81;;;6.32;100.00
10668;BME280;5382;42.136;24.796;2023-03-03T02:05:31;100177.53;;;6.82;100.00
10668;BME280;5382;42.136;24.796;2023-03-03T02:07:58;100133.28;;;6.55;100.00
10668;BME280;5382;42.136;24.796;2023-03-03T02:10:25;100163.81;;;6.92;100.00
10668;BME280;5382;42.136;24.796;2023-03-03T02:12:55;100172.72;;;6.90;100.00
10668;BME280;5382;42.136;24.796;2023-03-03T02:15:25;100081.84;;;6.16;100.00
10668;BME280;5382;42.136;24.796;2023-03-03T02:17:56;100164.66;;;6.93;100.00
10668;BME280;5382;42.136;24.796;2023-03-03T02:20:34;100093.34;;;6.48;100.00
10668;BME280;5382;42.136;24.796;2023-03-03T02:23:07;100168.13;;;6.93;100.00
10668;BME280;5382;42.136;24.796;2023-03-03T02:25:43;100164.31;;;6.99;100.00
10668;BME280;5382;42.136;24.796;2023-03-03T02:28:15;100157.88;;;7.05;100.00
10668;BME280;5382;42.136;24.796;2023-03-03T02:30:43;100159.66;;;7.04;100.00
10668;BME280;5382;42.136;24.796;2023-03-03T02:33:09;100094.56;;;6.59;100.00
10668;BME280;5382;42.136;24.796;2023-03-03T02:35:38;100150.72;;;6.91;100.00
10668;BME280;5382;42.136;24.796;2023-03-03T02:38:17;100160.94;;;6.97;100.00
10668;BME280;5382;42.136;24.796;2023-03-03T02:40:53;99986.78;;;5.90;100.00
10668;BME280;5382;42.136;24.796;2023-03-03T02:43:25;100119.69;;;6.64;100.00
10668;BME280;5382;42.136;24.796;2023-03-03T02:45:56;100153.19;;;6.94;100.00
10668;BME280;5382;42.136;24.796;2023-03-03T02:48:23;100123.16;;;6.65;100.00
10668;BME280;5382;42.136;24.796;2023-03-03T02:50:50;100161.75;;;6.82;100.00
10668;BME280;5382;42.136;24.796;2023-03-03T02:53:17;100153.31;;;6.75;100.00
10668;BME280;5382;42.136;24.796;2023-03-03T02:55:44;100122.19;;;6.32;100.00
10668;BME280;5382;42.136;24.796;2023-03-03T02:58:11;100111.53;;;6.36;100.00
10668;BME280;5382;42.136;24.796;2023-03-03T03:00:39;100160.31;;;6.59;100.00
10668;BME280;5382;42.136;24.796;2023-03-03T03:03:06;100152.09;;;6.47;100.00
10668;BME280;5382;42.136;24.796;2023-03-03T03:05:33;100159.59;;;6.55;100.00
10668;BME280;5382;42.136;24.796;2023-03-03T03:08:00;100138.59;;;6.38;100.00
10668;BME280;5382;42.136;24.796;2023-03-03T03:10:26;100156.50;;;6.64;100.00
10668;BME280;5382;42.136;24.796;2023-03-03T03:12:53;100057.06;;;6.04;100.00
10668;BME280;5382;42.136;24.796;2023-03-03T03:15:20;100149.47;;;6.65;100.00
10668;BME280;5382;42.136;24.796;2023-03-03T03:17:48;100151.84;;;6.69;100.00
10668;BME280;5382;42.136;24.796;2023-03-03T03:20:16;100137.16;;;6.48;100.00
10668;BME280;5382;42.136;24.796;2023-03-03T03:22:43;100116.28;;;6.45;100.00
10668;BME280;5382;42.136;24.796;2023-03-03T03:25:09;100156.13;;;6.54;100.00
10668;BME280;5382;42.136;24.796;2023-03-03T03:27:36;100143.66;;;6.58;100.00
10668;BME280;5382;42.136;24.796;2023-03-03T03:30:04;100140.09;;;6.59;100.00
10668;BME280;5382;42.136;24.796;2023-03-03T03:32:31;100141.63;;;6.63;100.00
10668;BME280;5382;42.136;24.796;2023-03-03T03:34:59;100144.66;;;6.55;100.00
10668;BME280;5382;42.136;24.796;2023-03-03T03:37:26;100149.53;;;6.63;100.00
10668;BME280;5382;42.136;24.796;2023-03-03T03:39:53;100149.69;;;6.60;100.00
10668;BME280;5382;42.136;24.796;2023-03-03T03:42:20;100148.84;;;6.60;100.00
10668;BME280;5382;42.136;24.796;2023-03-03T03:44:47;100136.09;;;6.52;100.00
10668;BME280;5382;42.136;24.796;2023-03-03T03:47:15;100155.66;;;6.46;100.00
10668;BME280;5382;42.136;24.796;2023-03-03T03:49:42;100149.41;;;6.49;100.00
10668;BME280;5382;42.136;24.796;2023-03-03T03:52:11;100146.44;;;6.55;100.00
10668;BME280;5382;42.136;24.796;2023-03-03T03:54:37;100139.50;;;6.54;100.00
10668;BME280;5382;42.136;24.796;2023-03-03T03:57:04;100097.59;;;5.99;100.00
10668;BME280;5382;42.136;24.796;2023-03-03T03:59:31;100105.19;;;6.22;100.00
10668;BME280;5382;42.136;24.796;2023-03-03T04:01:58;100147.16;;;6.41;100.00
10668;BME280;5382;42.136;24.796;2023-03-03T04:04:25;100028.50;;;5.62;100.00
10668;BME280;5382;42.136;24.796;2023-03-03T04:06:51;100145.81;;;6.50;100.00
10668;BME280;5382;42.136;24.796;2023-03-03T04:09:20;100143.81;;;6.55;100.00
10668;BME280;5382;42.136;24.796;2023-03-03T04:11:47;100080.16;;;6.15;100.00
10668;BME280;5382;42.136;24.796;2023-03-03T04:14:13;100108.13;;;6.33;100.00
10668;BME280;5382;42.136;24.796;2023-03-03T04:16:40;100122.25;;;6.48;100.00
10668;BME280;5382;42.136;24.796;2023-03-03T04:19:07;100139.28;;;6.59;100.00
10668;BME280;5382;42.136;24.796;2023-03-03T04:21:34;100134.53;;;6.48;100.00
10668;BME280;5382;42.136;24.796;2023-03-03T04:24:00;100064.16;;;6.20;100.00
10668;BME280;5382;42.136;24.796;2023-03-03T04:26:29;100154.09;;;6.42;100.00
10668;BME280;5382;42.136;24.796;2023-03-03T04:28:56;100115.63;;;6.41;100.00
10668;BME280;5382;42.136;24.796;2023-03-03T04:31:24;100057.19;;;5.84;100.00
10668;BME280;5382;42.136;24.796;2023-03-03T04:33:51;100134.69;;;6.45;100.00
10668;BME280;5382;42.136;24.796;2023-03-03T04:36:18;100136.72;;;6.40;100.00
10668;BME280;5382;42.136;24.796;2023-03-03T04:38:45;100135.97;;;6.38;100.00
10668;BME280;5382;42.136;24.796;2023-03-03T04:41:13;100093.13;;;6.01;100.00
10668;BME280;5382;42.136;24.796;2023-03-03T04:43:42;100138.81;;;6.33;100.00
10668;BME280;5382;42.136;24.796;2023-03-03T04:46:08;100140.72;;;6.29;100.00
10668;BME280;5382;42.136;24.796;2023-03-03T04:48:35;100113.97;;;6.04;100.00
10668;BME280;5382;42.136;24.796;2023-03-03T04:51:03;100137.41;;;6.26;100.00
10668;BME280;5382;42.136;24.796;2023-03-03T04:53:30;100111.38;;;6.21;100.00
10668;BME280;5382;42.136;24.796;2023-03-03T04:55:56;100148.09;;;6.40;100.00
10668;BME280;5382;42.136;24.796;2023-03-03T04:58:23;100139.44;;;6.38;100.00
10668;BME280;5382;42.136;24.796;2023-03-03T05:00:54;100104.25;;;6.06;100.00
10668;BME280;5382;42.136;24.796;2023-03-03T05:03:22;100063.50;;;5.80;100.00
10668;BME280;5382;42.136;24.796;2023-03-03T05:05:49;100091.84;;;5.90;100.00
10668;BME280;5382;42.136;24.796;2023-03-03T05:08:16;100082.66;;;5.82;100.00
10668;BME280;5382;42.136;24.796;2023-03-03T05:10:43;100103.84;;;5.96;100.00
10668;BME280;5382;42.136;24.796;2023-03-03T05:13:10;100110.03;;;5.95;100.00
10668;BME280;5382;42.136;24.796;2023-03-03T05:15:39;100147.63;;;6.15;100.00
10668;BME280;5382;42.136;24.796;2023-03-03T05:18:08;99987.72;;;5.01;100.00
10668;BME280;5382;42.136;24.796;2023-03-03T05:20:36;100146.84;;;6.13;100.00
10668;BME280;5382;42.136;24.796;2023-03-03T05:23:02;100117.16;;;5.74;100.00
10668;BME280;5382;42.136;24.796;2023-03-03T05:25:29;100147.38;;;6.19;100.00
10668;BME280;5382;42.136;24.796;2023-03-03T05:28:12;100130.22;;;6.12;100.00
10668;BME280;5382;42.136;24.796;2023-03-03T05:30:39;100108.34;;;5.94;100.00
10668;BME280;5382;42.136;24.796;2023-03-03T05:33:07;100039.22;;;5.57;100.00
10668;BME280;5382;42.136;24.796;2023-03-03T05:35:38;100149.63;;;6.27;100.00
10668;BME280;5382;42.136;24.796;2023-03-03T05:38:04;100151.72;;;6.20;100.00
10668;BME280;5382;42.136;24.796;2023-03-03T05:40:31;100098.09;;;6.07;100.00
10668;BME280;5382;42.136;24.796;2023-03-03T05:42:58;100177.84;;;6.41;100.00
10668;BME280;5382;42.136;24.796;2023-03-03T05:45:25;100120.09;;;6.22;100.00
10668;BME280;5382;42.136;24.796;2023-03-03T05:47:52;100138.03;;;6.31;100.00
10668;BME280;5382;42.136;24.796;2023-03-03T05:50:23;100091.06;;;6.07;100.00
10668;BME280;5382;42.136;24.796;2023-03-03T05:52:50;100116.84;;;6.17;100.00
10668;BME280;5382;42.136;24.796;2023-03-03T05:55:18;100162.94;;;6.59;100.00
10668;BME280;5382;42.136;24.796;2023-03-03T05:57:45;100102.94;;;6.32;100.00
10668;BME280;5382;42.136;24.796;2023-03-03T06:00:13;100157.41;;;6.63;100.00
10668;BME280;5382;42.136;24.796;2023-03-03T06:02:41;100162.88;;;6.76;100.00
10668;BME280;5382;42.136;24.796;2023-03-03T06:05:08;100176.34;;;6.87;100.00
10668;BME280;5382;42.136;24.796;2023-03-03T06:07:37;100123.16;;;6.65;100.00
10668;BME280;5382;42.136;24.796;2023-03-03T06:10:05;100165.84;;;6.87;100.00
10668;BME280;5382;42.136;24.796;2023-03-03T06:12:32;100075.03;;;6.29;100.00
10668;BME280;5382;42.136;24.796;2023-03-03T06:14:58;100167.72;;;7.01;100.00
10668;BME280;5382;42.136;24.796;2023-03-03T06:17:25;100170.91;;;7.08;100.00
10668;BME280;5382;42.136;24.796;2023-03-03T06:19:52;100159.25;;;7.12;100.00
10668;BME280;5382;42.136;24.796;2023-03-03T06:22:19;100136.16;;;7.01;100.00
10668;BME280;5382;42.136;24.796;2023-03-03T06:24:47;100137.16;;;6.98;100.00
10668;BME280;5382;42.136;24.796;2023-03-03T06:27:14;100140.97;;;6.93;100.00
10668;BME280;5382;42.136;24.796;2023-03-03T06:29:41;100175.06;;;7.28;100.00
10668;BME280;5382;42.136;24.796;2023-03-03T06:32:08;100169.75;;;7.29;100.00
10668;BME280;5382;42.136;24.796;2023-03-03T06:34:35;100180.25;;;7.29;100.00
10668;BME280;5382;42.136;24.796;2023-03-03T06:37:02;100177.50;;;7.15;100.00
10668;BME280;5382;42.136;24.796;2023-03-03T06:39:29;100087.44;;;6.61;100.00
10668;BME280;5382;42.136;24.796;2023-03-03T06:41:57;100180.50;;;7.25;100.00
10668;BME280;5382;42.136;24.796;2023-03-03T06:44:24;100178.09;;;7.20;100.00
10668;BME280;5382;42.136;24.796;2023-03-03T06:46:51;100179.91;;;7.19;100.00
10668;BME280;5382;42.136;24.796;2023-03-03T06:49:18;100172.13;;;7.01;100.00
10668;BME280;5382;42.136;24.796;2023-03-03T06:51:45;100151.75;;;6.71;100.00
10668;BME280;5382;42.136;24.796;2023-03-03T06:54:14;100174.38;;;7.08;100.00
10668;BME280;5382;42.136;24.796;2023-03-03T06:56:42;100181.63;;;7.20;100.00
10668;BME280;5382;42.136;24.796;2023-03-03T06:59:13;100178.88;;;7.22;100.00
10668;BME280;5382;42.136;24.796;2023-03-03T07:01:42;100143.78;;;6.90;100.00
10668;BME280;5382;42.136;24.796;2023-03-03T07:04:14;100181.44;;;7.24;100.00
10668;BME280;5382;42.136;24.796;2023-03-03T07:06:41;100141.53;;;7.15;100.00
10668;BME280;5382;42.136;24.796;2023-03-03T07:09:14;100040.91;;;6.12;100.00
10668;BME280;5382;42.136;24.796;2023-03-03T07:11:44;100181.53;;;7.22;100.00
10668;BME280;5382;42.136;24.796;2023-03-03T07:14:15;100176.19;;;7.24;100.00
10668;BME280;5382;42.136;24.796;2023-03-03T07:16:42;100147.44;;;7.03;100.00
10668;BME280;5382;42.136;24.796;2023-03-03T07:19:17;100183.38;;;7.20;100.00
10668;BME280;5382;42.136;24.796;2023-03-03T07:21:45;100185.75;;;7.25;100.00
10668;BME280;5382;42.136;24.796;2023-03-03T07:24:24;100180.34;;;7.28;100.00
10668;BME280;5382;42.136;24.796;2023-03-03T07:26:51;100148.22;;;7.05;100.00
10668;BME280;5382;42.136;24.796;2023-03-03T07:29:24;100149.50;;;7.14;100.00
10668;BME280;5382;42.136;24.796;2023-03-03T07:31:52;100115.72;;;7.06;100.00
10668;BME280;5382;42.136;24.796;2023-03-03T07:34:21;100070.44;;;6.84;100.00
10668;BME280;5382;42.136;24.796;2023-03-03T07:36:49;100185.91;;;7.71;100.00
10668;BME280;5382;42.136;24.796;2023-03-03T07:39:25;100180.88;;;7.82;100.00
10668;BME280;5382;42.136;24.796;2023-03-03T07:41:55;100150.66;;;7.57;100.00
10668;BME280;5382;42.136;24.796;2023-03-03T07:44:34;100178.09;;;7.85;100.00
10668;BME280;5382;42.136;24.796;2023-03-03T07:47:14;100101.22;;;7.47;100.00
10668;BME280;5382;42.136;24.796;2023-03-03T07:49:44;100063.19;;;7.20;100.00
10668;BME280;5382;42.136;24.796;2023-03-03T07:52:37;100176.06;;;7.90;100.00
10668;BME280;5382;42.136;24.796;2023-03-03T07:55:30;100117.28;;;7.42;100.00
10668;BME280;5382;42.136;24.796;2023-03-03T07:58:16;100180.03;;;7.81;100.00
10668;BME280;5382;42.136;24.796;2023-03-03T08:03:53;100154.22;;;7.56;100.00
10668;BME280;5382;42.136;24.796;2023-03-03T08:06:36;100089.66;;;7.17;100.00
10668;BME280;5382;42.136;24.796;2023-03-03T08:09:25;100116.84;;;7.34;100.00
10668;BME280;5382;42.136;24.796;2023-03-03T08:11:54;100151.84;;;7.68;100.00
10668;BME280;5382;42.136;24.796;2023-03-03T08:14:26;100153.63;;;7.83;100.00
10668;BME280;5382;42.136;24.796;2023-03-03T08:16:54;100140.88;;;7.75;100.00
10668;BME280;5382;42.136;24.796;2023-03-03T08:19:23;100117.25;;;7.58;100.00
10668;BME280;5382;42.136;24.796;2023-03-03T08:21:50;100151.13;;;7.96;100.00
10668;BME280;5382;42.136;24.796;2023-03-03T08:24:17;100133.47;;;7.82;100.00
10668;BME280;5382;42.136;24.796;2023-03-03T08:26:44;100148.75;;;7.91;100.00
10668;BME280;5382;42.136;24.796;2023-03-03T08:29:11;100140.94;;;7.74;100.00
10668;BME280;5382;42.136;24.796;2023-03-03T08:31:37;100141.13;;;7.71;100.00
10668;BME280;5382;42.136;24.796;2023-03-03T08:34:04;100139.50;;;7.68;100.00
10668;BME280;5382;42.136;24.796;2023-03-03T08:36:33;100135.00;;;7.86;100.00
10668;BME280;5382;42.136;24.796;2023-03-03T08:39:00;100128.53;;;7.92;100.00
10668;BME280;5382;42.136;24.796;2023-03-03T08:41:27;100124.59;;;7.99;100.00
10668;BME280;5382;42.136;24.796;2023-03-03T08:43:53;100117.16;;;7.75;100.00
10668;BME280;5382;42.136;24.796;2023-03-03T08:46:20;100107.03;;;7.83;100.00
10668;BME280;5382;42.136;24.796;2023-03-03T08:48:47;100070.13;;;7.53;100.00
10668;BME280;5382;42.136;24.796;2023-03-03T08:51:14;100119.69;;;7.77;100.00
10668;BME280;5382;42.136;24.796;2023-03-03T08:53:42;100129.38;;;7.76;100.00
10668;BME280;5382;42.136;24.796;2023-03-03T08:56:09;100076.69;;;7.46;100.00
10668;BME280;5382;42.136;24.796;2023-03-03T08:58:36;100127.69;;;7.91;100.00
10668;BME280;5382;42.136;24.796;2023-03-03T09:01:04;100123.34;;;7.90;100.00
10668;BME280;5382;42.136;24.796;2023-03-03T09:03:31;100120.66;;;7.76;100.00
10668;BME280;5382;42.136;24.796;2023-03-03T09:05:58;100125.91;;;7.76;100.00
10668;BME280;5382;42.136;24.796;2023-03-03T09:08:24;100123.78;;;7.82;100.00
10668;BME280;5382;42.136;24.796;2023-03-03T09:10:53;100139.66;;;7.97;100.00
10668;BME280;5382;42.136;24.796;2023-03-03T09:13:19;100111.16;;;8.03;100.00
10668;BME280;5382;42.136;24.796;2023-03-03T09:15:47;100117.69;;;8.12;100.00
10668;BME280;5382;42.136;24.796;2023-03-03T09:18:17;100123.09;;;8.25;100.00
10668;BME280;5382;42.136;24.796;2023-03-03T09:20:45;100122.47;;;8.05;100.00
10668;BME280;5382;42.136;24.796;2023-03-03T09:23:28;100089.09;;;7.90;100.00
10668;BME280;5382;42.136;24.796;2023-03-03T09:25:58;100102.31;;;8.04;100.00
10668;BME280;5382;42.136;24.796;2023-03-03T09:28:37;100109.00;;;8.10;100.00
10668;BME280;5382;42.136;24.796;2023-03-03T09:31:20;100091.13;;;8.01;100.00
10668;BME280;5382;42.136;24.796;2023-03-03T09:33:48;100105.97;;;8.32;100.00
10668;BME280;5382;42.136;24.796;2023-03-03T09:36:20;100112.50;;;8.41;100.00
10668;BME280;5382;42.136;24.796;2023-03-03T09:38:48;100101.50;;;8.48;100.00
10668;BME280;5382;42.136;24.796;2023-03-03T09:41:31;100086.38;;;8.52;100.00
10668;BME280;5382;42.136;24.796;2023-03-03T09:47:28;100104.94;;;8.79;100.00
10668;BME280;5382;42.136;24.796;2023-03-03T09:50:05;100097.75;;;8.95;100.00
10668;BME280;5382;42.136;24.796;2023-03-03T09:52:39;100108.72;;;9.04;100.00
10668;BME280;5382;42.136;24.796;2023-03-03T09:55:19;100074.75;;;8.98;100.00
10668;BME280;5382;42.136;24.796;2023-03-03T10:01:21;100082.00;;;9.08;100.00
10668;BME280;5382;42.136;24.796;2023-03-03T10:04:05;100085.13;;;9.15;100.00
10668;BME280;5382;42.136;24.796;2023-03-03T10:06:39;100093.31;;;9.52;100.00
10668;BME280;5382;42.136;24.796;2023-03-03T10:09:33;100085.75;;;9.60;100.00
10668;BME280;5382;42.136;24.796;2023-03-03T10:12:05;100101.94;;;9.55;100.00
10668;BME280;5382;42.136;24.796;2023-03-03T10:14:46;100107.16;;;9.28;100.00
10668;BME280;5382;42.136;24.796;2023-03-03T10:17:33;100109.72;;;9.30;100.00
10668;BME280;5382;42.136;24.796;2023-03-03T10:20:18;100067.03;;;8.94;100.00
10668;BME280;5382;42.136;24.796;2023-03-03T10:22:51;100096.16;;;9.22;100.00
10668;BME280;5382;42.136;24.796;2023-03-03T10:25:29;100091.16;;;9.17;100.00
10668;BME280;5382;42.136;24.796;2023-03-03T10:28:12;100069.97;;;9.04;100.00
10668;BME280;5382;42.136;24.796;2023-03-03T10:30:48;100040.69;;;8.66;100.00
10668;BME280;5382;42.136;24.796;2023-03-03T10:33:25;100087.47;;;9.05;100.00
10668;BME280;5382;42.136;24.796;2023-03-03T10:36:20;100080.59;;;9.03;100.00
10668;BME280;5382;42.136;24.796;2023-03-03T10:38:59;100094.94;;;8.99;100.00
10668;BME280;5382;42.136;24.796;2023-03-03T10:41:40;100076.72;;;9.08;100.00
10668;BME280;5382;42.136;24.796;2023-03-03T10:44:31;100057.22;;;9.11;100.00
10668;BME280;5382;42.136;24.796;2023-03-03T10:47:25;100032.53;;;9.12;100.00
10668;BME280;5382;42.136;24.796;2023-03-03T10:50:04;100064.91;;;9.28;100.00
10668;BME280;5382;42.136;24.796;2023-03-03T10:52:43;100036.13;;;8.97;100.00
10668;BME280;5382;42.136;24.796;2023-03-03T10:55:20;100073.81;;;9.13;100.00
10668;BME280;5382;42.136;24.796;2023-03-03T10:58:01;100065.81;;;9.00;100.00
10668;BME280;5382;42.136;24.796;2023-03-03T11:00:35;100049.31;;;8.97;100.00
10668;BME280;5382;42.136;24.796;2023-03-03T11:06:14;100042.94;;;8.58;100.00
10668;BME280;5382;42.136;24.796;2023-03-03T11:08:45;100040.19;;;8.59;100.00
10668;BME280;5382;42.136;24.796;2023-03-03T11:11:18;100032.75;;;8.80;100.00
10668;BME280;5382;42.136;24.796;2023-03-03T11:13:54;100032.59;;;8.55;100.00
10668;BME280;5382;42.136;24.796;2023-03-03T11:16:44;100046.44;;;8.72;100.00
10668;BME280;5382;42.136;24.796;2023-03-03T11:19:39;100016.63;;;8.99;100.00
10668;BME280;5382;42.136;24.796;2023-03-03T11:22:24;100023.28;;;9.19;100.00
10668;BME280;5382;42.136;24.796;2023-03-03T11:25:04;100016.28;;;9.18;100.00
10668;BME280;5382;42.136;24.796;2023-03-03T11:30:50;100033.00;;;9.46;100.00
10668;BME280;5382;42.136;24.796;2023-03-03T11:33:26;100027.75;;;9.31;100.00
10668;BME280;5382;42.136;24.796;2023-03-03T11:36:08;100020.00;;;9.43;100.00
10668;BME280;5382;42.136;24.796;2023-03-03T11:38:47;100020.13;;;9.54;100.00
10668;BME280;5382;42.136;24.796;2023-03-03T11:41:25;100011.16;;;9.56;100.00
10668;BME280;5382;42.136;24.796;2023-03-03T11:43:57;100015.19;;;9.62;100.00
10668;BME280;5382;42.136;24.796;2023-03-03T11:46:29;100010.06;;;9.46;100.00
10668;BME280;5382;42.136;24.796;2023-03-03T11:49:01;100007.75;;;9.54;100.00
10668;BME280;5382;42.136;24.796;2023-03-03T11:51:36;100000.16;;;9.63;100.00
10668;BME280;5382;42.136;24.796;2023-03-03T11:54:16;99997.50;;;9.90;100.00
10668;BME280;5382;42.136;24.796;2023-03-03T11:56:46;99987.78;;;10.03;100.00
10668;BME280;5382;42.136;24.796;2023-03-03T11:59:32;100000.75;;;9.93;100.00
10668;BME280;5382;42.136;24.796;2023-03-03T12:02:13;99994.41;;;9.96;100.00
10668;BME280;5382;42.136;24.796;2023-03-03T12:04:48;99990.09;;;10.08;100.00
10668;BME280;5382;42.136;24.796;2023-03-03T12:07:26;99892.94;;;9.20;100.00
10668;BME280;5382;42.136;24.796;2023-03-03T12:10:11;99995.81;;;9.89;100.00
10668;BME280;5382;42.136;24.796;2023-03-03T12:12:42;99986.63;;;10.07;100.00
10668;BME280;5382;42.136;24.796;2023-03-03T12:15:21;99965.84;;;9.75;100.00
10668;BME280;5382;42.136;24.796;2023-03-03T12:18:13;99958.28;;;9.83;100.00
10668;BME280;5382;42.136;24.796;2023-03-03T12:20:54;99970.84;;;10.05;100.00
10668;BME280;5382;42.136;24.796;2023-03-03T12:26:26;99957.44;;;10.34;100.00
10668;BME280;5382;42.136;24.796;2023-03-03T12:28:58;99980.19;;;10.50;100.00
10668;BME280;5382;42.136;24.796;2023-03-03T12:31:39;99960.66;;;10.63;100.00
10668;BME280;5382;42.136;24.796;2023-03-03T12:34:18;99978.88;;;10.68;100.00
10668;BME280;5382;42.136;24.796;2023-03-03T12:37:21;99976.25;;;10.55;100.00
10668;BME280;5382;42.136;24.796;2023-03-03T12:39:55;99933.00;;;10.05;100.00
10668;BME280;5382;42.136;24.796;2023-03-03T12:42:38;99971.16;;;10.14;100.00
10668;BME280;5382;42.136;24.796;2023-03-03T12:45:22;99945.59;;;9.89;100.00
10668;BME280;5382;42.136;24.796;2023-03-03T12:48:00;99983.38;;;10.29;100.00
10668;BME280;5382;42.136;24.796;2023-03-03T12:50:39;99982.72;;;10.13;100.00
10668;BME280;5382;42.136;24.796;2023-03-03T12:53:19;99927.91;;;9.76;100.00
10668;BME280;5382;42.136;24.796;2023-03-03T12:55:52;99837.41;;;9.09;100.00
10668;BME280;5382;42.136;24.796;2023-03-03T12:58:35;99848.19;;;9.31;100.00
10668;BME280;5382;42.136;24.796;2023-03-03T13:01:15;99808.78;;;9.15;100.00
10668;BME280;5382;42.136;24.796;2023-03-03T13:03:51;99917.75;;;9.70;100.00
10668;BME280;5382;42.136;24.796;2023-03-03T13:06:25;99849.88;;;9.20;100.00
10668;BME280;5382;42.136;24.796;2023-03-03T13:09:16;99796.78;;;8.84;100.00
10668;BME280;5382;42.136;24.796;2023-03-03T13:11:59;99828.09;;;9.16;100.00
10668;BME280;5382;42.136;24.796;2023-03-03T13:14:34;99854.38;;;9.05;100.00
10668;BME280;5382;42.136;24.796;2023-03-03T13:17:16;99807.31;;;8.71;100.00
10668;BME280;5382;42.136;24.796;2023-03-03T13:19:47;99957.75;;;9.78;100.00
10668;BME280;5382;42.136;24.796;2023-03-03T13:22:22;99857.84;;;9.05;100.00
10668;BME280;5382;42.136;24.796;2023-03-03T13:24:57;99802.31;;;8.94;100.00
10668;BME280;5382;42.136;24.796;2023-03-03T13:27:33;99883.19;;;9.48;100.00
10668;BME280;5382;42.136;24.796;2023-03-03T13:30:14;99907.50;;;9.53;100.00
10668;BME280;5382;42.136;24.796;2023-03-03T13:32:48;99870.28;;;9.30;100.00